Time;durP1;ratioP1;P1;durP2;ratioP2;P2;SDS_P1;SDS_P2;PMS_P1;PMS_P2;Temp;Humidity;BMP_temperature;BMP_pressure;BME280_temperature;BME280_humidity;BME280_pressure;Samples;Min_cycle;Max_cycle;Signal;HPM_P1;HPM_P2
2021/10/15 00:03:22;;;;;;;9.75;8.40;;;;;;;10.71;77.19;100565.97;10395279;28;20062;-65
2021/10/15 00:08:24;;;;;;;11.55;8.68;;;;;;;10.75;77.08;100564.78;10384301;28;20054;-64
2021/10/15 00:13:25;;;;;;;8.95;8.00;;;;;;;10.67;77.32;100557.34;10391638;28;20292;-64
2021/10/15 00:18:27;;;;;;;12.07;9.63;;;;;;;10.65;76.97;100558.47;10385927;28;20393;-65
2021/10/15 00:23:28;;;;;;;10.80;8.98;;;;;;;10.59;77.69;100560.59;10391121;28;20049;-64
2021/10/15 00:28:30;;;;;;;10.88;9.20;;;;;;;10.48;78.44;100552.59;10379870;28;20046;-64
2021/10/15 00:33:34;;;;;;;11.30;9.05;;;;;;;10.45;77.97;100550.19;10367418;28;20046;-64
2021/10/15 00:38:36;;;;;;;13.63;9.68;;;;;;;10.41;77.69;100541.56;10378800;28;20140;-65
2021/10/15 00:43:58;;;;;;;13.00;10.07;;;;;;;10.33;78.84;100543.06;10335078;23;20512;-61
2021/10/15 00:49:05;;;;;;;10.63;9.25;;;;;;;10.34;78.02;100544.78;10194620;28;20118;-61
2021/10/15 00:54:06;;;;;;;11.70;9.15;;;;;;;10.41;79.37;100535.41;10194110;28;20492;-60
2021/10/15 00:59:08;;;;;;;11.25;9.82;;;;;;;10.41;79.53;100530.06;10193893;28;20254;-60
2021/10/15 01:04:09;;;;;;;10.63;8.68;;;;;;;10.47;78.10;100529.59;10191480;28;20083;-61
2021/10/15 01:09:11;;;;;;;10.98;9.60;;;;;;;10.23;79.22;100519.81;10201764;28;20073;-60
2021/10/15 01:14:13;;;;;;;9.80;8.80;;;;;;;10.22;79.67;100531.44;10217503;28;20454;-60
2021/10/15 01:19:14;;;;;;;9.68;8.68;;;;;;;10.29;79.77;100526.50;10198594;28;20792;-61
2021/10/15 01:24:18;;;;;;;10.93;9.68;;;;;;;10.19;78.93;100505.06;10188091;28;20043;-61
2021/10/15 01:29:19;;;;;;;16.48;10.27;;;;;;;10.14;79.76;100507.19;10193633;28;20130;-62
2021/10/15 01:34:20;;;;;;;10.65;9.60;;;;;;;10.16;78.84;100493.78;10219688;28;20218;-62
2021/10/15 01:39:22;;;;;;;12.57;9.40;;;;;;;10.01;78.92;100490.44;10186033;28;20497;-61
2021/10/15 01:44:23;;;;;;;10.90;8.82;;;;;;;10.10;79.21;100479.13;10190633;28;20106;-61
2021/10/15 01:49:25;;;;;;;10.57;9.38;;;;;;;10.02;78.58;100474.38;10192554;28;20134;-61
2021/10/15 01:54:26;;;;;;;10.80;9.70;;;;;;;9.90;79.26;100457.53;10186914;28;20095;-61
2021/10/15 01:59:27;;;;;;;12.23;9.27;;;;;;;10.02;78.90;100455.75;10187655;28;20047;-60
2021/10/15 02:04:29;;;;;;;12.90;10.27;;;;;;;10.16;79.20;100452.06;10185995;28;20580;-60
2021/10/15 02:09:30;;;;;;;13.05;9.43;;;;;;;10.15;79.07;100445.06;10182956;28;20533;-60
2021/10/15 02:14:32;;;;;;;12.10;9.60;;;;;;;10.13;79.41;100431.00;10180285;28;20050;-61
2021/10/15 02:19:33;;;;;;;13.43;10.23;;;;;;;10.29;79.79;100433.38;10190964;28;20696;-61
2021/10/15 02:24:36;;;;;;;10.60;9.02;;;;;;;10.25;79.09;100424.78;10190997;28;20047;-60
2021/10/15 02:29:37;;;;;;;10.85;9.73;;;;;;;10.22;78.56;100430.34;10189437;28;20072;-62
2021/10/15 02:34:38;;;;;;;11.10;9.63;;;;;;;10.26;80.05;100431.78;10197546;28;20134;-60
2021/10/15 02:39:40;;;;;;;11.75;9.57;;;;;;;10.32;79.10;100426.97;10187763;28;20560;-61
2021/10/15 02:44:42;;;;;;;10.55;9.10;;;;;;;10.21;79.85;100425.97;10183491;28;20123;-60
2021/10/15 02:49:44;;;;;;;10.73;9.63;;;;;;;10.14;78.92;100424.72;10191858;28;20079;-60
2021/10/15 02:54:45;;;;;;;10.75;9.07;;;;;;;10.12;79.97;100412.50;10185069;28;20243;-60
2021/10/15 02:59:46;;;;;;;10.05;9.10;;;;;;;10.06;78.83;100414.69;10196243;28;20571;-61
2021/10/15 03:04:48;;;;;;;17.17;9.90;;;;;;;9.81;79.58;100410.34;10190245;28;20553;-59
2021/10/15 03:09:50;;;;;;;11.93;9.85;;;;;;;9.80;79.33;100407.81;10188421;28;20076;-60
2021/10/15 03:14:51;;;;;;;11.05;9.98;;;;;;;9.57;80.42;100413.03;10190534;28;20116;-60
2021/10/15 03:19:52;;;;;;;12.80;10.70;;;;;;;9.48;80.56;100403.09;10190863;28;20433;-59
2021/10/15 03:24:54;;;;;;;13.27;10.02;;;;;;;9.42;80.76;100399.06;10192802;28;20063;-59
2021/10/15 03:29:55;;;;;;;14.25;11.55;;;;;;;9.53;80.43;100407.09;10185757;28;20051;-58
2021/10/15 03:34:57;;;;;;;11.57;10.30;;;;;;;9.49;81.03;100410.94;10184091;28;20498;-59
2021/10/15 03:39:58;;;;;;;12.18;10.82;;;;;;;9.41;81.22;100405.31;10177591;28;20052;-59
2021/10/15 03:44:59;;;;;;;9.88;8.88;;;;;;;9.27;81.45;100405.50;10181909;28;20141;-59
2021/10/15 03:50:03;;;;;;;12.00;10.80;;;;;;;9.11;81.62;100398.66;10183913;28;20746;-59
2021/10/15 03:55:07;;;;;;;11.73;9.90;;;;;;;9.01;82.99;100397.63;10179504;28;20051;-60
2021/10/15 04:00:11;;;;;;;11.32;9.55;;;;;;;9.01;82.76;100390.50;10216014;28;20071;-59
2021/10/15 04:05:13;;;;;;;11.27;9.87;;;;;;;9.16;82.37;100387.69;10176630;28;20079;-59
2021/10/15 04:10:14;;;;;;;12.45;10.23;;;;;;;9.20;82.12;100379.38;10194639;28;20083;-59
2021/10/15 04:15:16;;;;;;;12.80;10.43;;;;;;;9.02;83.64;100381.56;10187254;28;20055;-59
2021/10/15 04:20:17;;;;;;;12.27;10.40;;;;;;;9.05;82.70;100375.16;10194709;28;20714;-59
2021/10/15 04:25:19;;;;;;;12.30;10.90;;;;;;;9.13;84.24;100364.03;10194494;28;20090;-59
2021/10/15 04:30:20;;;;;;;12.85;11.48;;;;;;;9.12;82.42;100363.16;10222075;28;20131;-60
2021/10/15 04:35:22;;;;;;;12.88;11.05;;;;;;;9.09;82.83;100362.53;10220383;28;20127;-60
2021/10/15 04:40:23;;;;;;;11.95;10.75;;;;;;;9.13;83.07;100356.06;10190226;28;20146;-59
2021/10/15 04:45:25;;;;;;;11.68;10.50;;;;;;;9.07;83.25;100351.16;10191872;28;20059;-60
2021/10/15 04:50:26;;;;;;;12.18;10.98;;;;;;;9.07;83.64;100341.41;10189364;28;20043;-60
2021/10/15 04:55:28;;;;;;;12.50;11.20;;;;;;;9.20;83.45;100344.00;10193170;28;20457;-60
2021/10/15 05:00:32;;;;;;;12.70;11.40;;;;;;;9.19;83.11;100337.84;10177620;28;20170;-60
2021/10/15 05:05:34;;;;;;;15.48;11.07;;;;;;;9.10;83.28;100338.53;10174490;28;20055;-60
2021/10/15 05:10:35;;;;;;;13.60;11.43;;;;;;;9.12;84.07;100344.56;10181371;28;20086;-60
2021/10/15 05:15:37;;;;;;;11.35;9.63;;;;;;;9.27;83.44;100337.28;10182755;28;20115;-59
2021/10/15 05:20:39;;;;;;;12.80;11.48;;;;;;;9.24;83.08;100341.97;10197089;28;20056;-59
2021/10/15 05:25:41;;;;;;;15.18;11.80;;;;;;;9.12;84.12;100343.72;10184931;28;20047;-59
2021/10/15 05:30:42;;;;;;;12.93;11.55;;;;;;;9.13;83.98;100333.00;10198403;28;20060;-59
2021/10/15 05:35:44;;;;;;;12.43;11.13;;;;;;;9.20;83.73;100336.91;10167889;28;20044;-60
2021/10/15 05:40:45;;;;;;;14.48;12.98;;;;;;;9.06;84.19;100328.25;10170294;28;20068;-59
2021/10/15 05:45:46;;;;;;;15.63;12.88;;;;;;;9.07;83.78;100338.75;10190512;28;20236;-59
2021/10/15 05:50:48;;;;;;;15.25;13.55;;;;;;;9.06;84.67;100339.69;10176289;29;20052;-59
2021/10/15 06:01:00;;;;;;;16.88;13.63;;;;;;;9.28;83.96;100319.56;10189537;28;20080;-61
2021/10/15 06:16:28;;;;;;;19.80;16.05;;;;;;;9.43;82.01;100325.50;10169082;28;20593;-57
2021/10/15 06:21:31;;;;;;;17.27;14.88;;;;;;;9.38;82.92;100313.44;10172965;28;20048;-58
2021/10/15 06:26:32;;;;;;;18.92;16.38;;;;;;;9.42;81.77;100321.19;10173025;28;20062;-61
2021/10/15 06:31:34;;;;;;;19.88;17.23;;;;;;;9.39;82.92;100322.25;10203280;28;20055;-60
2021/10/15 06:36:35;;;;;;;19.60;15.90;;;;;;;9.34;83.03;100327.91;10175411;28;20055;-60
2021/10/15 06:41:37;;;;;;;20.23;16.65;;;;;;;9.09;83.73;100318.22;10178100;28;20147;-59
2021/10/15 06:46:40;;;;;;;18.80;15.77;;;;;;;8.92;83.42;100318.63;10282386;23;20057;-64
2021/10/15 06:51:41;;;;;;;16.63;14.52;;;;;;;9.01;83.92;100326.75;10393007;28;20046;-61
2021/10/15 06:56:43;;;;;;;19.83;17.60;;;;;;;8.85;83.46;100331.47;10390441;28;20060;-61
2021/10/15 07:01:45;;;;;;;18.92;16.92;;;;;;;8.88;83.89;100325.13;10393798;28;20042;-64
2021/10/15 07:06:47;;;;;;;17.50;15.52;;;;;;;8.77;84.03;100312.63;10391932;28;20053;-61
2021/10/15 07:11:50;;;;;;;16.52;14.68;;;;;;;8.81;83.75;100320.25;10364233;28;20117;-63
2021/10/15 07:16:51;;;;;;;18.40;15.98;;;;;;;8.91;83.80;100319.59;10382116;28;20084;-61
2021/10/15 07:21:53;;;;;;;19.05;15.23;;;;;;;9.08;83.02;100321.84;10382199;28;20046;-62
2021/10/15 07:26:54;;;;;;;18.42;15.30;;;;;;;9.02;82.52;100317.84;10373890;28;20054;-63
2021/10/15 07:31:55;;;;;;;16.15;13.45;;;;;;;8.99;83.62;100319.84;10381170;28;20054;-62
2021/10/15 07:36:57;;;;;;;13.85;12.48;;;;;;;8.97;82.87;100327.94;10390931;28;20469;-63
2021/10/15 07:41:58;;;;;;;15.50;14.00;;;;;;;8.94;82.82;100335.28;10428629;28;20037;-67
2021/10/15 07:47:00;;;;;;;16.00;14.30;;;;;;;8.96;82.04;100325.38;10360639;28;20065;-64
2021/10/15 07:52:01;;;;;;;17.73;15.80;;;;;;;9.01;82.06;100328.56;10361299;28;20285;-64
2021/10/15 07:57:05;;;;;;;17.42;15.82;;;;;;;9.05;81.30;100332.69;10376267;28;20057;-67
2021/10/15 08:02:07;;;;;;;15.32;13.82;;;;;;;9.27;80.71;100344.41;10389771;28;20037;-67
2021/10/15 08:07:09;;;;;;;14.23;12.95;;;;;;;9.53;78.66;100338.00;10364959;28;20077;-63
2021/10/15 08:12:11;;;;;;;15.18;13.57;;;;;;;9.79;78.56;100345.84;10368512;28;20486;-64
2021/10/15 08:17:12;;;;;;;13.55;12.15;;;;;;;10.07;77.07;100344.56;10404585;28;20432;-64
2021/10/15 08:22:14;;;;;;;15.43;11.80;;;;;;;10.33;75.59;100349.72;10367362;28;20065;-64
2021/10/15 08:27:15;;;;;;;12.60;11.10;;;;;;;10.44;74.45;100351.53;10368314;28;20096;-67
2021/10/15 08:32:16;;;;;;;11.85;10.65;;;;;;;10.87;73.52;100348.13;10368754;28;20309;-62
2021/10/15 08:37:18;;;;;;;12.63;11.13;;;;;;;11.44;71.03;100345.31;10359657;28;20107;-66
2021/10/15 08:42:19;;;;;;;13.35;12.00;;;;;;;11.58;69.55;100345.03;10366529;28;20116;-66
2021/10/15 08:47:21;;;;;;;11.77;10.77;;;;;;;11.52;69.81;100340.19;10365549;28;20065;-63
2021/10/15 08:52:42;;;;;;;11.48;10.38;;;;;;;11.71;69.91;100341.31;10366480;28;20137;-64
2021/10/15 08:57:53;;;;;;;12.20;10.90;;;;;;;11.93;69.73;100337.72;10388502;28;20052;-66
2021/10/15 09:03:14;;;;;;;14.00;11.50;;;;;;;11.75;69.36;100338.25;10407510;28;20057;-66
2021/10/15 09:08:15;;;;;;;12.50;11.25;;;;;;;11.67;70.95;100330.91;10396080;28;20067;-66
2021/10/15 09:13:20;;;;;;;14.27;12.02;;;;;;;11.63;70.48;100332.16;10401670;28;20058;-65
2021/10/15 09:18:32;;;;;;;;;;;;;;;11.38;70.84;100348.47;10408445;28;20092;-66
2021/10/15 09:23:46;;;;;;;13.32;11.93;;;;;;;11.22;72.73;100341.75;10408510;28;19921;-68
2021/10/15 09:28:48;;;;;;;14.27;12.98;;;;;;;11.47;71.57;100353.06;10401081;28;20042;-67
2021/10/15 09:33:56;;;;;;;15.25;12.43;;;;;;;11.57;70.66;100343.31;10403774;28;20057;-67
2021/10/15 09:39:23;;;;;;;13.10;11.80;;;;;;;11.70;70.44;100351.16;10407055;28;20045;-64
2021/10/15 09:44:33;;;;;;;12.80;11.50;;;;;;;11.64;71.08;100355.16;10397480;28;20061;-66
2021/10/15 09:49:53;;;;;;;14.38;12.27;;;;;;;11.55;71.45;100358.59;10401959;28;20041;-64
2021/10/15 09:55:18;;;;;;;13.48;11.82;;;;;;;11.30;71.86;100363.31;10396948;28;20088;-66
2021/10/15 10:00:24;;;;;;;13.47;12.10;;;;;;;11.27;72.66;100352.03;10395867;28;20058;-66
2021/10/15 10:05:25;;;;;;;13.73;11.20;;;;;;;11.44;72.34;100331.97;10400039;28;20066;-66
2021/10/15 10:10:30;;;;;;;13.40;12.00;;;;;;;11.84;71.37;100337.50;10395864;28;20080;-66
2021/10/15 10:15:34;;;;;;;12.98;11.18;;;;;;;12.27;69.76;100341.03;10387736;28;20054;-66
2021/10/15 10:20:38;;;;;;;12.77;10.43;;;;;;;12.43;69.31;100340.56;10388866;28;20112;-64
2021/10/15 10:25:41;;;;;;;12.63;10.32;;;;;;;12.46;68.96;100350.97;10396666;28;20080;-66
2021/10/15 10:30:44;;;;;;;12.15;10.88;;;;;;;12.80;68.80;100334.63;10375240;28;20078;-64
2021/10/15 10:35:47;;;;;;;11.40;10.20;;;;;;;13.19;66.73;100344.56;10364883;28;20060;-65
2021/10/15 10:41:09;;;;;;;12.52;11.13;;;;;;;13.02;67.01;100335.41;10360470;28;20054;-66
2021/10/15 10:46:21;;;;;;;15.50;10.80;;;;;;;13.03;66.72;100337.94;10357500;28;20715;-64
2021/10/15 10:51:23;;;;;;;11.07;9.98;;;;;;;13.63;66.08;100338.84;10357594;28;20071;-64
2021/10/15 10:56:50;;;;;;;12.77;9.90;;;;;;;16.37;59.46;100322.03;10353220;28;20069;-63
2021/10/15 11:01:54;;;;;;;9.52;7.82;;;;;;;20.89;44.85;100306.06;10341593;28;20061;-61
2021/10/15 11:07:04;;;;;;;10.38;8.27;;;;;;;19.89;46.82;100302.78;10345461;28;20050;-61
2021/10/15 11:12:07;;;;;;;10.18;9.07;;;;;;;17.70;51.90;100303.44;10348250;28;20045;-69
2021/10/15 11:17:11;;;;;;;9.23;7.10;;;;;;;23.30;41.23;100292.38;10346303;28;20045;-63
2021/10/15 11:22:13;;;;;;;10.85;7.60;;;;;;;26.03;33.48;100288.03;10345672;28;20421;-65
2021/10/15 11:27:16;;;;;;;7.03;6.28;;;;;;;26.06;33.06;100269.34;10347117;28;20139;-66
2021/10/15 11:32:37;;;;;;;8.10;6.32;;;;;;;25.81;33.09;100282.16;10346948;28;20104;-66
2021/10/15 11:37:46;;;;;;;7.50;6.70;;;;;;;22.38;38.88;100283.69;10349969;28;20456;-68
2021/10/15 11:42:48;;;;;;;8.73;6.30;;;;;;;20.73;43.36;100284.66;10354972;28;20124;-63
2021/10/15 11:48:07;;;;;;;11.63;7.70;;;;;;;18.95;47.20;100294.84;10351155;28;20507;-64
2021/10/15 11:53:11;;;;;;;9.35;6.95;;;;;;;17.57;51.72;100262.72;10346230;28;20235;-63
2021/10/15 11:58:18;;;;;;;8.25;6.90;;;;;;;17.26;53.31;100275.00;10351454;28;20081;-63
2021/10/15 12:03:27;;;;;;;9.55;7.68;;;;;;;16.92;54.29;100278.63;10347359;28;20062;-62
2021/10/15 12:08:29;;;;;;;9.90;7.15;;;;;;;17.46;53.04;100280.88;10342179;28;20081;-67
2021/10/15 12:13:31;;;;;;;7.47;6.10;;;;;;;19.25;50.94;100273.44;10346781;28;20160;-64
2021/10/15 12:18:32;;;;;;;7.45;6.50;;;;;;;20.19;46.98;100269.56;10346049;28;20082;-67
2021/10/15 12:23:51;;;;;;;7.88;6.38;;;;;;;19.04;49.09;100263.28;10349382;28;20138;-63
2021/10/15 12:28:53;;;;;;;9.45;6.90;;;;;;;17.97;52.23;100271.78;10359476;28;20065;-63
2021/10/15 12:34:14;;;;;;;9.75;6.78;;;;;;;16.95;54.84;100290.91;10352052;28;20054;-65
2021/10/15 12:39:24;;;;;;;8.32;7.03;;;;;;;16.26;57.09;100294.47;10356734;28;20107;-66
2021/10/15 12:44:29;;;;;;;7.40;6.63;;;;;;;15.84;58.62;100287.16;10354234;28;20567;-64
2021/10/15 12:49:58;;;;;;;7.32;6.57;;;;;;;15.61;59.63;100291.28;10355367;28;20140;-65
2021/10/15 12:55:27;;;;;;;8.93;6.93;;;;;;;15.41;60.57;100285.28;10362706;28;20128;-66
2021/10/15 13:00:28;;;;;;;10.48;7.00;;;;;;;15.34;60.86;100282.34;10354364;28;20503;-67
2021/10/15 13:05:31;;;;;;;7.95;6.32;;;;;;;15.32;61.36;100276.31;10360435;28;20403;-68
2021/10/15 13:10:33;;;;;;;8.52;6.20;;;;;;;15.37;61.51;100282.03;10352014;28;20124;-68
2021/10/15 13:15:34;;;;;;;6.97;5.40;;;;;;;15.44;62.35;100283.09;10355308;28;20474;-67
2021/10/15 13:20:35;;;;;;;8.27;5.65;;;;;;;15.44;61.66;100283.09;10353488;28;20160;-64
2021/10/15 13:25:37;;;;;;;5.90;5.30;;;;;;;15.44;62.02;100296.53;10354877;28;20182;-64
2021/10/15 13:30:39;;;;;;;5.85;4.35;;;;;;;15.45;62.29;100287.47;10360109;28;20058;-65
2021/10/15 13:35:45;;;;;;;7.50;6.05;;;;;;;15.35;62.55;100294.75;10350977;28;20077;-66
2021/10/15 13:51:03;;;;;;;8.10;6.25;;;;;;;15.13;64.89;100304.97;10356232;28;20073;-65
2021/10/15 13:56:06;;;;;;;7.93;6.25;;;;;;;15.13;65.12;100302.28;10350499;28;20073;-64
2021/10/15 14:01:17;;;;;;;7.32;5.82;;;;;;;14.96;65.26;100303.09;10355829;28;20072;-64
2021/10/15 14:06:19;;;;;;;6.47;5.75;;;;;;;14.93;65.79;100298.03;10363256;28;20046;-65
2021/10/15 14:11:20;;;;;;;6.63;4.90;;;;;;;14.81;65.85;100302.75;10342437;28;20078;-65
2021/10/15 14:16:22;;;;;;;8.15;4.88;;;;;;;14.84;66.24;100303.28;10349267;28;20095;-65
2021/10/15 14:21:24;;;;;;;6.22;4.45;;;;;;;14.83;66.15;100298.94;10355633;28;20065;-65
2021/10/15 14:26:25;;;;;;;9.70;6.32;;;;;;;14.95;66.10;100298.72;10342303;28;20132;-67
2021/10/15 14:31:27;;;;;;;7.15;4.15;;;;;;;14.76;66.04;100303.19;10348331;28;20089;-63
2021/10/15 14:36:29;;;;;;;5.75;2.95;;;;;;;14.63;66.34;100308.06;10349001;28;20510;-66
2021/10/15 14:41:30;;;;;;;5.20;3.22;;;;;;;14.54;66.54;100303.56;10349916;28;20069;-66
2021/10/15 14:46:32;;;;;;;8.82;7.35;;;;;;;14.48;67.23;100308.50;10349023;28;20074;-65
2021/10/15 14:51:33;;;;;;;4.05;3.50;;;;;;;14.54;67.58;100311.59;10347765;28;20129;-64
2021/10/15 14:56:35;;;;;;;4.53;3.38;;;;;;;14.58;67.25;100307.66;10352349;28;20081;-68
2021/10/15 15:01:37;;;;;;;4.05;2.67;;;;;;;14.67;68.13;100322.84;10347744;28;20137;-64
2021/10/15 15:06:38;;;;;;;3.45;2.33;;;;;;;14.67;67.32;100322.84;10349559;28;20052;-66
2021/10/15 15:11:40;;;;;;;4.63;2.70;;;;;;;14.54;68.02;100323.16;10341986;28;20187;-65
2021/10/15 15:16:42;;;;;;;3.47;2.60;;;;;;;14.70;68.19;100311.84;10358072;23;20726;-56
2021/10/15 15:21:44;;;;;;;4.53;2.60;;;;;;;14.52;68.59;100325.16;10330128;28;20133;-56
2021/10/15 15:26:46;;;;;;;4.10;2.50;;;;;;;14.48;69.15;100321.06;10314799;28;20054;-58
2021/10/15 15:31:48;;;;;;;4.22;2.83;;;;;;;14.23;70.23;100322.56;10299082;28;20078;-57
2021/10/15 15:36:51;;;;;;;2.60;2.08;;;;;;;14.33;70.97;100339.44;10298570;28;20074;-55
2021/10/15 15:41:53;;;;;;;2.72;2.08;;;;;;;14.38;71.05;100339.88;10299793;28;20467;-55
2021/10/15 15:46:58;;;;;;;1.73;1.50;;;;;;;14.18;72.19;100347.09;10306728;28;20077;-57
2021/10/15 15:52:06;;;;;;;2.50;1.60;;;;;;;14.22;72.30;100350.34;10300945;28;20056;-57
2021/10/15 15:57:11;;;;;;;3.28;1.70;;;;;;;14.37;71.91;100356.91;10306390;28;20583;-58
2021/10/15 16:02:13;;;;;;;4.10;2.00;;;;;;;14.41;72.16;100358.31;10311321;28;20056;-58
2021/10/15 16:07:14;;;;;;;2.83;1.65;;;;;;;14.44;72.70;100365.19;10311536;28;20129;-56
2021/10/15 16:12:15;;;;;;;3.22;1.60;;;;;;;14.46;73.27;100369.44;10305920;28;20249;-57
2021/10/15 16:17:17;;;;;;;3.17;2.35;;;;;;;14.41;73.24;100361.00;10315816;28;20078;-56
2021/10/15 16:22:19;;;;;;;4.30;2.63;;;;;;;14.13;73.39;100373.47;10308953;28;20078;-59
2021/10/15 16:27:23;;;;;;;2.65;2.40;;;;;;;13.99;74.39;100365.88;10312806;28;20128;-56
2021/10/15 16:32:25;;;;;;;6.40;3.97;;;;;;;14.17;75.88;100374.00;10313331;28;20433;-56
2021/10/15 16:37:26;;;;;;;3.67;2.88;;;;;;;14.23;75.55;100379.66;10312336;28;20368;-55
2021/10/15 16:42:28;;;;;;;3.70;2.92;;;;;;;14.25;75.50;100380.34;10314374;28;20061;-57
2021/10/15 16:47:29;;;;;;;3.38;3.00;;;;;;;14.23;75.22;100393.03;10311214;28;20507;-58
2021/10/15 16:52:31;;;;;;;3.85;3.38;;;;;;;14.21;74.80;100388.81;10315735;28;20066;-58
2021/10/15 16:57:33;;;;;;;4.63;3.60;;;;;;;14.12;74.11;100394.00;10309883;28;20300;-59
2021/10/15 17:02:34;;;;;;;3.40;2.60;;;;;;;14.09;73.22;100409.53;10305101;28;20643;-56
2021/10/15 17:07:36;;;;;;;3.47;1.75;;;;;;;14.13;72.38;100417.13;10304946;28;20049;-58
2021/10/15 17:12:37;;;;;;;3.92;2.40;;;;;;;14.17;72.10;100425.69;10306885;28;20515;-55
2021/10/15 17:17:38;;;;;;;2.13;1.90;;;;;;;14.17;73.07;100419.50;10306175;28;20638;-55
2021/10/15 17:22:40;;;;;;;2.83;2.10;;;;;;;14.14;71.61;100434.03;10305460;28;20137;-58
2021/10/15 17:27:44;;;;;;;3.80;2.90;;;;;;;14.02;72.26;100430.69;10305543;28;20895;-55
2021/10/15 17:32:46;;;;;;;4.05;2.90;;;;;;;14.03;72.47;100443.06;10298462;28;20109;-58
2021/10/15 17:37:47;;;;;;;2.35;2.08;;;;;;;13.99;72.09;100446.16;10307811;28;20244;-56
2021/10/15 17:42:50;;;;;;;3.63;1.90;;;;;;;13.91;71.45;100452.22;10308373;28;20082;-57
2021/10/15 17:47:52;;;;;;;3.72;2.00;;;;;;;13.88;71.62;100464.03;10309383;28;20133;-58
2021/10/15 17:52:53;;;;;;;2.95;2.13;;;;;;;13.79;71.34;100463.03;10305482;28;20700;-55
2021/10/15 17:57:55;;;;;;;2.85;2.47;;;;;;;13.70;70.96;100466.53;10304902;28;20120;-57
2021/10/15 18:02:56;;;;;;;2.90;1.90;;;;;;;13.57;71.50;100457.94;10299976;28;20152;-58
2021/10/15 18:07:58;;;;;;;4.30;3.00;;;;;;;13.39;72.26;100449.72;10298520;28;20134;-59
2021/10/15 18:13:00;;;;;;;3.35;2.85;;;;;;;13.39;72.04;100476.47;10296824;28;20121;-58
2021/10/15 18:18:01;;;;;;;3.25;2.95;;;;;;;13.08;72.90;100442.59;10297046;28;20144;-56
2021/10/15 18:23:03;;;;;;;4.85;3.28;;;;;;;13.23;73.37;100485.00;10305686;28;20058;-58
2021/10/15 18:28:04;;;;;;;3.13;2.83;;;;;;;13.14;73.74;100493.81;10305283;28;20136;-58
2021/10/15 18:33:06;;;;;;;3.72;3.35;;;;;;;13.01;73.60;100484.19;10309004;28;20141;-58
2021/10/15 18:38:07;;;;;;;7.05;4.10;;;;;;;13.01;73.55;100497.53;10309360;28;20046;-58
2021/10/15 18:43:10;;;;;;;4.50;3.85;;;;;;;12.96;73.46;100502.44;10310565;28;20136;-57
2021/10/15 18:48:13;;;;;;;5.60;3.75;;;;;;;12.92;73.51;100503.69;10307908;28;20828;-58
2021/10/15 18:53:15;;;;;;;6.00;5.27;;;;;;;12.86;74.40;100514.91;10300512;28;20073;-55
2021/10/15 18:58:17;;;;;;;8.07;7.32;;;;;;;12.84;74.17;100519.53;10290166;28;20198;-55
2021/10/15 19:03:19;;;;;;;4.00;3.70;;;;;;;12.88;74.09;100531.63;10309886;28;20057;-55
2021/10/15 19:08:23;;;;;;;4.55;3.80;;;;;;;12.83;73.67;100524.03;10298597;28;20093;-54
2021/10/15 19:13:28;;;;;;;4.57;4.18;;;;;;;12.77;74.16;100539.75;10303419;28;20112;-55
2021/10/15 19:18:29;;;;;;;6.28;4.63;;;;;;;12.65;75.66;100546.97;10304857;28;20057;-57
2021/10/15 19:23:35;;;;;;;4.78;4.38;;;;;;;12.60;75.67;100558.03;10301308;28;20129;-55
2021/10/15 19:28:37;;;;;;;5.85;4.72;;;;;;;12.48;75.92;100551.91;10300399;28;20220;-57
2021/10/15 19:33:39;;;;;;;4.55;4.25;;;;;;;12.48;76.24;100556.41;10299015;28;20133;-57
2021/10/15 19:38:41;;;;;;;5.35;4.75;;;;;;;12.41;76.32;100557.88;10302231;28;20494;-58
2021/10/15 19:43:42;;;;;;;5.53;5.03;;;;;;;12.40;76.45;100565.06;10300822;28;20117;-56
2021/10/15 19:48:44;;;;;;;5.88;5.38;;;;;;;12.31;76.95;100568.47;10301553;28;20047;-58
2021/10/15 19:53:46;;;;;;;5.47;5.00;;;;;;;12.21;77.22;100576.41;10304626;28;20070;-55
2021/10/15 19:58:47;;;;;;;6.30;5.70;;;;;;;12.20;77.14;100582.72;10310153;28;20735;-57
2021/10/15 20:03:48;;;;;;;7.45;5.00;;;;;;;12.13;76.99;100578.84;10298280;28;20046;-56
2021/10/15 20:08:51;;;;;;;6.30;5.80;;;;;;;12.08;77.56;100581.06;10290515;28;20046;-56
2021/10/15 20:13:52;;;;;;;5.80;5.18;;;;;;;12.07;77.72;100588.22;10297835;28;20490;-58
2021/10/15 20:18:54;;;;;;;6.55;5.95;;;;;;;11.99;77.68;100594.19;10294249;28;20070;-56
2021/10/15 20:24:00;;;;;;;7.60;6.57;;;;;;;11.96;77.40;100597.06;10300166;28;20076;-58
2021/10/15 20:29:03;;;;;;;7.57;6.80;;;;;;;11.89;76.76;100597.66;10305625;28;20515;-57
2021/10/15 20:34:05;;;;;;;5.85;5.03;;;;;;;11.72;77.73;100594.53;10303809;28;20500;-55
2021/10/15 20:39:06;;;;;;;6.60;5.60;;;;;;;11.73;77.46;100603.41;10303633;28;20082;-56
2021/10/15 20:44:08;;;;;;;7.28;6.05;;;;;;;11.68;77.69;100606.44;10301173;28;20578;-58
2021/10/15 20:49:09;;;;;;;7.97;5.20;;;;;;;11.49;78.67;100586.53;10310232;28;20499;-58
2021/10/15 20:54:11;;;;;;;5.10;4.63;;;;;;;11.54;78.36;100601.34;10309713;28;20498;-57
2021/10/15 20:59:12;;;;;;;5.95;5.00;;;;;;;11.58;78.08;100622.28;10310333;28;20219;-58
2021/10/15 21:04:14;;;;;;;5.65;4.35;;;;;;;11.60;77.59;100630.19;10312091;28;20073;-57
2021/10/15 21:09:15;;;;;;;4.80;3.60;;;;;;;11.54;77.32;100628.84;10307790;28;20074;-58
2021/10/15 21:14:17;;;;;;;5.05;3.95;;;;;;;11.25;77.13;100586.66;10310140;28;20101;-58
2021/10/15 21:19:18;;;;;;;4.00;3.10;;;;;;;11.46;76.85;100623.28;10320208;28;20059;-57
2021/10/15 21:24:19;;;;;;;5.88;3.83;;;;;;;11.48;77.13;100621.31;10309729;28;20108;-55
2021/10/15 21:29:22;;;;;;;5.18;4.32;;;;;;;11.32;77.76;100619.03;10308260;28;20125;-58
2021/10/15 21:34:25;;;;;;;6.47;4.00;;;;;;;11.40;77.15;100629.09;10307872;28;20077;-57
2021/10/15 21:39:26;;;;;;;5.57;3.00;;;;;;;11.23;75.90;100617.91;10309054;28;20054;-57
2021/10/15 21:44:28;;;;;;;5.10;3.65;;;;;;;11.34;77.20;100634.91;10309749;28;20081;-57
2021/10/15 21:49:29;;;;;;;4.70;3.22;;;;;;;11.32;76.19;100633.19;10307722;28;20078;-56
2021/10/15 21:54:31;;;;;;;5.45;3.53;;;;;;;11.30;76.30;100635.13;10308444;28;20066;-56
2021/10/15 21:59:32;;;;;;;5.20;3.53;;;;;;;11.24;76.07;100624.91;10304476;28;20062;-58
2021/10/15 22:04:34;;;;;;;5.38;3.70;;;;;;;11.24;75.84;100635.59;10307447;28;20136;-56
2021/10/15 22:09:35;;;;;;;5.35;3.70;;;;;;;11.18;76.31;100633.38;10302618;28;20062;-57
2021/10/15 22:14:38;;;;;;;4.93;2.92;;;;;;;11.06;75.66;100626.34;10309759;28;20047;-56
2021/10/15 22:19:40;;;;;;;4.80;3.65;;;;;;;11.09;75.41;100632.31;10308067;28;20061;-56
2021/10/15 22:24:41;;;;;;;4.72;3.63;;;;;;;11.05;76.00;100641.50;10306345;28;20077;-56
2021/10/15 22:29:43;;;;;;;5.63;3.50;;;;;;;10.81;75.39;100620.25;10296021;28;20074;-58
2021/10/15 22:34:44;;;;;;;4.13;3.50;;;;;;;10.89;75.72;100651.63;10309766;28;20051;-56
2021/10/15 22:39:46;;;;;;;6.75;5.15;;;;;;;10.86;75.64;100642.03;10307945;28;20079;-55
2021/10/15 22:44:47;;;;;;;5.78;3.97;;;;;;;10.93;75.66;100651.25;10311328;28;20082;-55
2021/10/15 22:49:48;;;;;;;4.00;3.60;;;;;;;10.78;75.40;100625.81;10308624;28;20106;-57
2021/10/15 22:54:50;;;;;;;3.83;3.30;;;;;;;10.86;75.65;100662.50;10309176;28;20479;-57
2021/10/15 22:59:52;;;;;;;7.10;4.70;;;;;;;10.78;75.89;100649.75;10307845;28;20511;-55
2021/10/15 23:04:54;;;;;;;6.07;4.55;;;;;;;10.73;75.81;100654.56;10370251;23;20526;-61
2021/10/15 23:09:55;;;;;;;5.25;3.72;;;;;;;10.73;76.00;100662.56;10348803;28;20521;-61
2021/10/15 23:14:57;;;;;;;5.13;4.05;;;;;;;10.70;75.96;100655.63;10350327;28;20541;-61
2021/10/15 23:19:58;;;;;;;4.93;4.30;;;;;;;10.70;75.76;100657.47;10350979;28;20676;-60
2021/10/15 23:25:00;;;;;;;5.95;4.47;;;;;;;10.58;75.87;100654.75;10343589;28;20074;-60
2021/10/15 23:30:03;;;;;;;4.82;4.20;;;;;;;10.57;75.75;100653.06;10350667;28;20077;-60